Time;durP1;ratioP1;P1;durP2;ratioP2;P2;SDS_P1;SDS_P2;PMS_P1;PMS_P2;Temp;Humidity;BMP_temperature;BMP_pressure;BME280_temperature;BME280_humidity;BME280_pressure;Samples;Min_cycle;Max_cycle;Signal;HPM_P1;HPM_P2
2023/01/16 00:02:22;;;;;;;1.23;0.68;;;;;;;;;;4988517;28;20543;-81
2023/01/16 00:04:48;;;;;;;0.75;0.70;;;;;;;;;;4986813;28;20126;-78
2023/01/16 00:07:13;;;;;;;1.02;0.75;;;;;;;;;;4990539;28;20077;-82
2023/01/16 00:09:38;;;;;;;4.22;0.93;;;;;;;;;;4989782;28;20038;-78
2023/01/16 00:12:04;;;;;;;2.55;1.02;;;;;;;;;;4991042;28;20036;-81
2023/01/16 00:14:30;;;;;;;7.57;1.20;;;;;;;;;;4993582;28;20040;-80
2023/01/16 00:16:55;;;;;;;5.60;0.70;;;;;;;;;;4991772;28;20518;-80
2023/01/16 00:19:21;;;;;;;1.77;0.80;;;;;;;;;;4993104;28;20128;-81
2023/01/16 00:21:47;;;;;;;0.85;0.70;;;;;;;;;;4996373;28;20506;-80
2023/01/16 00:24:13;;;;;;;0.90;0.70;;;;;;;;;;4998211;28;20038;-80
2023/01/16 00:26:38;;;;;;;0.77;0.77;;;;;;;;;;5004921;28;20113;-81
2023/01/16 00:29:04;;;;;;;0.47;0.47;;;;;;;;;;5015937;28;20109;-80
2023/01/16 00:31:29;;;;;;;6.93;1.40;;;;;;;;;;5001094;28;20038;-80
2023/01/16 00:33:54;;;;;;;1.75;0.77;;;;;;;;;;4996579;28;20103;-79
2023/01/16 00:36:20;;;;;;;1.65;0.77;;;;;;;;;;4997680;28;20089;-81
2023/01/16 00:38:46;;;;;;;2.03;1.02;;;;;;;;;;4998716;28;20038;-80
2023/01/16 00:41:11;;;;;;;3.53;0.88;;;;;;;;;;4997983;28;20027;-78
2023/01/16 00:43:37;;;;;;;0.63;0.55;;;;;;;;;;5000397;28;20160;-79
2023/01/16 00:46:02;;;;;;;4.72;0.85;;;;;;;;;;4994130;28;20128;-79
2023/01/16 00:48:27;;;;;;;1.40;0.85;;;;;;;;;;4995843;28;20062;-82
2023/01/16 00:50:53;;;;;;;1.75;0.70;;;;;;;;;;4991977;28;20019;-77
2023/01/16 00:53:18;;;;;;;6.53;0.82;;;;;;;;;;5004813;28;20030;-80
2023/01/16 00:55:44;;;;;;;2.42;0.57;;;;;;;;;;4995907;28;20028;-81
2023/01/16 01:00:50;;;;;;;2.75;0.50;;;;;;;;;;4997860;22;20062;-86
2023/01/16 01:03:15;;;;;;;4.15;1.15;;;;;;;;;;4997892;28;20066;-85
2023/01/16 01:05:41;;;;;;;0.75;0.60;;;;;;;;;;4994633;28;20029;-84
2023/01/16 01:08:06;;;;;;;4.88;0.80;;;;;;;;;;4987625;28;20034;-85
2023/01/16 01:10:32;;;;;;;0.43;0.43;;;;;;;;;;4984962;28;20109;-83
2023/01/16 01:12:58;;;;;;;3.80;1.23;;;;;;;;;;4989599;28;20030;-84
2023/01/16 01:15:24;;;;;;;2.88;0.90;;;;;;;;;;4993022;28;20022;-83
2023/01/16 01:17:50;;;;;;;1.65;0.73;;;;;;;;;;4998076;28;20586;-84
2023/01/16 01:20:15;;;;;;;2.42;0.93;;;;;;;;;;4986687;28;20042;-84
2023/01/16 01:22:41;;;;;;;0.60;0.60;;;;;;;;;;4995756;28;20033;-83
2023/01/16 01:25:06;;;;;;;4.00;0.73;;;;;;;;;;4990842;28;20026;-84
2023/01/16 01:27:32;;;;;;;1.50;1.08;;;;;;;;;;4993666;28;20038;-83
2023/01/16 01:29:57;;;;;;;1.30;0.68;;;;;;;;;;4990205;28;20149;-82
2023/01/16 01:32:22;;;;;;;1.00;0.68;;;;;;;;;;4984607;28;20026;-83
2023/01/16 01:34:48;;;;;;;0.70;0.70;;;;;;;;;;4979222;28;20205;-85
2023/01/16 01:37:14;;;;;;;0.43;0.43;;;;;;;;;;4972454;28;20037;-84
2023/01/16 01:39:39;;;;;;;2.58;0.80;;;;;;;;;;4971835;28;20038;-84
2023/01/16 01:45:15;;;;;;;0.73;0.60;;;;;;;;;;4948384;28;20054;-84
2023/01/16 01:47:49;;;;;;;0.98;0.68;;;;;;;;;;4972172;28;20025;-83
2023/01/16 01:50:32;;;;;;;7.13;1.10;;;;;;;;;;4968774;28;20524;-84
2023/01/16 01:53:00;;;;;;;4.07;1.33;;;;;;;;;;4966486;28;20110;-83
2023/01/16 01:55:26;;;;;;;1.30;1.00;;;;;;;;;;4967166;28;20115;-83
2023/01/16 01:58:02;;;;;;;1.13;0.60;;;;;;;;;;4971556;28;20061;-86
2023/01/16 02:00:28;;;;;;;4.82;1.17;;;;;;;;;;4975583;28;20053;-84
2023/01/16 02:03:08;;;;;;;1.98;0.73;;;;;;;;;;4985218;28;20105;-84
2023/01/16 02:05:40;;;;;;;1.30;0.68;;;;;;;;;;4985043;28;20444;-84
2023/01/16 02:08:06;;;;;;;0.63;0.63;;;;;;;;;;4987761;28;20047;-83
2023/01/16 02:10:39;;;;;;;2.10;0.65;;;;;;;;;;4997099;28;20489;-84
2023/01/16 02:13:05;;;;;;;0.57;0.57;;;;;;;;;;4987503;28;20031;-84
2023/01/16 02:15:31;;;;;;;1.75;0.80;;;;;;;;;;4989986;28;20342;-83
2023/01/16 02:21:29;;;;;;;0.75;0.75;;;;;;;;;;4994929;28;20117;-84
2023/01/16 02:24:04;;;;;;;0.75;0.75;;;;;;;;;;4991180;28;20065;-85
2023/01/16 02:26:51;;;;;;;0.65;0.65;;;;;;;;;;4991384;28;20464;-85
2023/01/16 02:29:42;;;;;;;0.40;0.40;;;;;;;;;;4991901;28;20573;-85
2023/01/16 02:32:25;;;;;;;1.48;0.60;;;;;;;;;;4992278;28;20029;-84
2023/01/16 02:35:25;;;;;;;2.05;1.25;;;;;;;;;;4997039;28;20144;-84
2023/01/16 02:37:54;;;;;;;3.60;0.63;;;;;;;;;;4993850;28;20029;-85
2023/01/16 02:40:41;;;;;;;0.65;0.60;;;;;;;;;;5006382;28;20742;-83
2023/01/16 02:43:41;;;;;;;0.85;0.77;;;;;;;;;;5010347;28;20022;-84
2023/01/16 02:46:21;;;;;;;0.75;0.65;;;;;;;;;;4994666;28;20060;-83
2023/01/16 02:48:53;;;;;;;0.43;0.43;;;;;;;;;;4995173;28;20121;-83
2023/01/16 02:52:03;;;;;;;2.20;0.65;;;;;;;;;;4996387;28;20018;-83
2023/01/16 02:54:41;;;;;;;0.52;0.47;;;;;;;;;;4997704;28;21343;-84
2023/01/16 02:57:21;;;;;;;1.05;0.73;;;;;;;;;;4994755;28;20336;-84
2023/01/16 02:59:48;;;;;;;0.70;0.70;;;;;;;;;;5009381;28;20053;-84
2023/01/16 03:02:14;;;;;;;3.72;0.80;;;;;;;;;;4994669;28;20075;-83
2023/01/16 03:04:47;;;;;;;0.40;0.40;;;;;;;;;;4997061;28;21834;-84
2023/01/16 03:07:27;;;;;;;2.42;0.55;;;;;;;;;;4991032;28;20039;-83
2023/01/16 03:10:01;;;;;;;0.82;0.73;;;;;;;;;;4996696;28;20041;-84
2023/01/16 03:12:55;;;;;;;1.48;0.88;;;;;;;;;;4997696;28;20018;-84
2023/01/16 03:15:29;;;;;;;1.45;0.55;;;;;;;;;;4988467;28;20677;-83
2023/01/16 03:18:05;;;;;;;1.65;0.68;;;;;;;;;;5000707;28;20092;-83
2023/01/16 03:20:54;;;;;;;3.92;0.68;;;;;;;;;;4986133;28;21468;-83
2023/01/16 03:23:32;;;;;;;1.70;0.82;;;;;;;;;;4990263;28;20472;-84
2023/01/16 03:26:10;;;;;;;0.93;0.70;;;;;;;;;;4987221;28;20026;-83
2023/01/16 03:28:46;;;;;;;0.70;0.70;;;;;;;;;;4985557;28;20084;-84
2023/01/16 03:31:21;;;;;;;0.50;0.50;;;;;;;;;;4990652;28;20080;-83
2023/01/16 03:34:02;;;;;;;0.63;0.63;;;;;;;;;;4981540;28;20048;-82
2023/01/16 03:36:33;;;;;;;0.70;0.50;;;;;;;;;;4985193;28;20045;-83
2023/01/16 03:39:03;;;;;;;4.60;0.70;;;;;;;;;;4992370;28;20042;-84
2023/01/16 03:41:30;;;;;;;1.23;1.05;;;;;;;;;;4989656;28;20511;-83
2023/01/16 03:44:07;;;;;;;3.45;0.43;;;;;;;;;;4989362;28;20126;-84
2023/01/16 03:46:41;;;;;;;1.50;0.90;;;;;;;;;;4991722;28;20030;-83
2023/01/16 03:49:11;;;;;;;2.20;0.65;;;;;;;;;;4994301;28;20041;-83
2023/01/16 03:51:43;;;;;;;0.60;0.60;;;;;;;;;;5001214;28;20030;-83
2023/01/16 03:54:36;;;;;;;0.60;0.60;;;;;;;;;;4994731;28;20452;-83
2023/01/16 03:57:17;;;;;;;0.75;0.60;;;;;;;;;;4990391;28;20044;-83
2023/01/16 03:59:44;;;;;;;2.58;0.90;;;;;;;;;;4993365;28;20118;-86
2023/01/16 04:02:40;;;;;;;4.22;0.55;;;;;;;;;;4987587;28;20032;-83
2023/01/16 04:05:30;;;;;;;0.85;0.77;;;;;;;;;;4992885;28;20512;-83
2023/01/16 04:08:19;;;;;;;0.43;0.43;;;;;;;;;;5009128;28;20496;-83
2023/01/16 04:10:47;;;;;;;2.60;0.77;;;;;;;;;;4999174;28;20045;-83
2023/01/16 04:13:18;;;;;;;0.40;0.40;;;;;;;;;;4990264;28;20412;-84
2023/01/16 04:15:47;;;;;;;0.98;0.50;;;;;;;;;;4996741;28;20030;-83
2023/01/16 04:18:12;;;;;;;1.83;0.77;;;;;;;;;;4993315;28;20031;-83
2023/01/16 04:20:41;;;;;;;0.57;0.57;;;;;;;;;;4995081;28;20104;-83
2023/01/16 04:23:07;;;;;;;3.55;1.10;;;;;;;;;;4998770;28;20081;-83
2023/01/16 04:25:32;;;;;;;1.02;0.80;;;;;;;;;;4997853;28;20030;-83
2023/01/16 04:27:58;;;;;;;1.08;0.68;;;;;;;;;;4996299;28;20038;-83
2023/01/16 04:30:23;;;;;;;2.80;1.02;;;;;;;;;;4997971;28;20095;-83
2023/01/16 04:32:48;;;;;;;1.70;0.80;;;;;;;;;;4991875;28;20015;-83
2023/01/16 04:35:14;;;;;;;1.48;0.80;;;;;;;;;;4998481;28;20030;-83
2023/01/16 04:37:39;;;;;;;2.00;0.93;;;;;;;;;;4994264;28;20664;-83
2023/01/16 04:40:08;;;;;;;1.02;0.70;;;;;;;;;;4989498;28;20181;-83
2023/01/16 04:42:34;;;;;;;1.50;0.95;;;;;;;;;;4990274;28;20408;-85
2023/01/16 04:44:59;;;;;;;0.52;0.52;;;;;;;;;;4993407;28;20484;-84
2023/01/16 04:47:24;;;;;;;5.45;0.85;;;;;;;;;;4993112;28;20181;-83
2023/01/16 04:49:50;;;;;;;0.60;0.60;;;;;;;;;;4990417;28;20080;-85
2023/01/16 04:52:15;;;;;;;0.73;0.50;;;;;;;;;;4991563;28;20535;-85
2023/01/16 04:54:40;;;;;;;1.75;0.90;;;;;;;;;;4991896;28;20577;-83
2023/01/16 04:57:06;;;;;;;2.45;1.08;;;;;;;;;;4989465;28;20403;-85
2023/01/16 04:59:31;;;;;;;0.90;0.50;;;;;;;;;;4990504;28;20069;-83
2023/01/16 05:01:56;;;;;;;0.40;0.40;;;;;;;;;;4998057;28;20026;-83
2023/01/16 05:04:22;;;;;;;0.70;0.70;;;;;;;;;;4997112;28;20480;-85
2023/01/16 05:06:47;;;;;;;0.68;0.68;;;;;;;;;;4994660;28;20073;-84
2023/01/16 05:09:16;;;;;;;1.00;0.65;;;;;;;;;;4996002;28;20031;-83
2023/01/16 05:11:41;;;;;;;3.45;1.45;;;;;;;;;;4995720;28;20053;-84
2023/01/16 05:14:08;;;;;;;1.20;0.95;;;;;;;;;;4994883;28;20022;-83
2023/01/16 05:16:35;;;;;;;2.03;0.90;;;;;;;;;;4995725;28;20027;-83
2023/01/16 05:19:01;;;;;;;10.73;1.48;;;;;;;;;;4995573;28;20022;-83
2023/01/16 05:21:26;;;;;;;0.95;0.95;;;;;;;;;;4993874;28;20030;-83
2023/01/16 05:23:52;;;;;;;1.05;1.02;;;;;;;;;;4993783;28;20037;-83
2023/01/16 05:26:17;;;;;;;3.08;1.15;;;;;;;;;;4997549;28;20030;-83
2023/01/16 05:28:42;;;;;;;2.90;1.42;;;;;;;;;;4996087;28;20029;-82
2023/01/16 05:31:08;;;;;;;6.88;2.67;;;;;;;;;;4996831;28;20388;-82
2023/01/16 05:33:33;;;;;;;7.22;1.90;;;;;;;;;;4998286;28;20029;-83
2023/01/16 05:35:58;;;;;;;4.88;1.80;;;;;;;;;;4997738;28;20390;-84
2023/01/16 05:38:24;;;;;;;5.18;1.95;;;;;;;;;;4999890;28;20468;-84
2023/01/16 05:40:49;;;;;;;2.80;1.67;;;;;;;;;;5005472;28;20053;-82
2023/01/16 05:43:15;;;;;;;1.60;1.10;;;;;;;;;;4997069;28;20030;-82
2023/01/16 05:45:41;;;;;;;0.82;0.82;;;;;;;;;;4997580;28;20105;-84
2023/01/16 05:48:06;;;;;;;8.85;1.77;;;;;;;;;;4992533;28;20062;-82
2023/01/16 05:50:32;;;;;;;1.88;1.10;;;;;;;;;;4991873;28;20089;-84
2023/01/16 05:52:57;;;;;;;5.50;1.70;;;;;;;;;;4991353;28;21315;-84
2023/01/16 05:55:23;;;;;;;10.57;1.63;;;;;;;;;;4993298;28;20044;-84
2023/01/16 05:57:49;;;;;;;6.68;1.88;;;;;;;;;;4989707;28;20037;-83
2023/01/16 06:00:15;;;;;;;6.50;2.42;;;;;;;;;;4989496;28;20023;-84
2023/01/16 06:02:40;;;;;;;2.08;1.35;;;;;;;;;;4990496;28;20472;-83
2023/01/16 06:05:06;;;;;;;6.57;1.80;;;;;;;;;;4993212;28;20113;-82
2023/01/16 06:07:31;;;;;;;1.65;1.17;;;;;;;;;;5004060;28;20764;-83
2023/01/16 06:09:57;;;;;;;1.10;1.00;;;;;;;;;;4997234;28;20089;-83
2023/01/16 06:12:28;;;;;;;4.82;1.40;;;;;;;;;;4991035;28;20122;-81
2023/01/16 06:14:54;;;;;;;2.25;1.10;;;;;;;;;;5000971;28;20145;-83
2023/01/16 06:17:19;;;;;;;5.72;1.60;;;;;;;;;;5004526;28;20120;-82
2023/01/16 06:19:45;;;;;;;3.90;1.23;;;;;;;;;;5012077;28;20085;-80
2023/01/16 06:22:12;;;;;;;1.25;1.13;;;;;;;;;;5006021;28;20026;-83
2023/01/16 06:24:37;;;;;;;0.77;0.77;;;;;;;;;;5003623;28;20060;-82
2023/01/16 06:27:03;;;;;;;1.75;1.05;;;;;;;;;;5003224;28;20030;-83
2023/01/16 06:29:28;;;;;;;4.13;1.15;;;;;;;;;;4996857;28;20052;-82
2023/01/16 06:31:53;;;;;;;3.08;1.50;;;;;;;;;;4997112;28;20072;-82
2023/01/16 06:34:19;;;;;;;9.50;1.38;;;;;;;;;;5003992;28;20054;-83
2023/01/16 06:36:47;;;;;;;0.80;0.80;;;;;;;;;;4997786;28;20060;-83
2023/01/16 06:39:13;;;;;;;1.90;0.85;;;;;;;;;;4996762;28;20022;-83
2023/01/16 06:41:39;;;;;;;0.80;0.80;;;;;;;;;;4997265;28;20106;-82
2023/01/16 06:44:04;;;;;;;2.08;1.02;;;;;;;;;;4997672;28;20090;-83
2023/01/16 06:46:30;;;;;;;2.17;1.05;;;;;;;;;;4999004;28;20026;-83
2023/01/16 06:48:55;;;;;;;1.75;0.80;;;;;;;;;;4996783;28;20022;-84
2023/01/16 06:51:21;;;;;;;1.55;0.65;;;;;;;;;;4999602;28;20026;-83
2023/01/16 06:53:46;;;;;;;8.57;1.52;;;;;;;;;;5004253;28;20097;-84
2023/01/16 06:56:12;;;;;;;0.68;0.68;;;;;;;;;;4998607;28;20025;-83
2023/01/16 06:58:37;;;;;;;3.03;0.70;;;;;;;;;;5004586;28;20120;-83
2023/01/16 07:01:02;;;;;;;1.63;0.80;;;;;;;;;;5002393;28;20035;-84
2023/01/16 07:03:28;;;;;;;0.77;0.77;;;;;;;;;;5002723;28;20034;-82
2023/01/16 07:05:53;;;;;;;2.40;1.02;;;;;;;;;;4991260;28;20030;-83
2023/01/16 07:08:18;;;;;;;1.27;0.75;;;;;;;;;;4989353;28;20026;-83
2023/01/16 07:10:44;;;;;;;3.78;1.02;;;;;;;;;;4985245;28;20072;-82
2023/01/16 07:13:10;;;;;;;0.68;0.52;;;;;;;;;;4994010;28;20138;-82
2023/01/16 07:24:11;;;;;;;2.55;0.63;;;;;;;;;;4952027;28;20047;-83
2023/01/16 07:26:40;;;;;;;1.35;0.80;;;;;;;;;;4991638;28;20025;-81
2023/01/16 07:29:06;;;;;;;1.30;1.00;;;;;;;;;;4991668;28;20046;-83
2023/01/16 07:31:33;;;;;;;0.75;0.75;;;;;;;;;;4988931;28;20084;-83
2023/01/16 07:33:59;;;;;;;1.60;0.80;;;;;;;;;;4989103;28;20073;-83
2023/01/16 07:36:24;;;;;;;4.13;1.30;;;;;;;;;;4991789;28;20034;-84
2023/01/16 07:38:49;;;;;;;0.98;0.80;;;;;;;;;;4992532;28;20546;-84
2023/01/16 07:41:15;;;;;;;2.97;1.10;;;;;;;;;;4989409;28;20449;-85
2023/01/16 07:43:41;;;;;;;0.68;0.68;;;;;;;;;;4990445;28;20094;-85
2023/01/16 07:46:06;;;;;;;0.90;0.90;;;;;;;;;;4996745;28;20026;-83
2023/01/16 07:48:32;;;;;;;0.70;0.70;;;;;;;;;;4998634;28;20042;-84
2023/01/16 07:50:58;;;;;;;4.68;1.27;;;;;;;;;;4996318;28;20030;-85
2023/01/16 07:53:27;;;;;;;2.97;0.73;;;;;;;;;;4995526;28;20030;-83
2023/01/16 07:55:55;;;;;;;1.20;0.90;;;;;;;;;;4993420;28;20092;-85
2023/01/16 07:58:21;;;;;;;3.35;1.40;;;;;;;;;;4998651;28;20040;-85
2023/01/16 08:00:47;;;;;;;0.93;0.80;;;;;;;;;;4995563;28;20781;-85
2023/01/16 08:03:14;;;;;;;3.60;1.40;;;;;;;;;;4995335;28;20022;-84
2023/01/16 08:05:40;;;;;;;4.72;1.40;;;;;;;;;;4996183;28;20034;-88
2023/01/16 08:08:05;;;;;;;6.65;1.30;;;;;;;;;;4998323;28;20121;-83
2023/01/16 08:10:31;;;;;;;1.00;1.00;;;;;;;;;;4996066;28;20026;-84
2023/01/16 08:12:56;;;;;;;2.40;0.80;;;;;;;;;;4994887;28;20492;-84
2023/01/16 08:15:21;;;;;;;2.40;1.30;;;;;;;;;;4989693;28;20426;-84
2023/01/16 08:17:47;;;;;;;2.67;1.17;;;;;;;;;;4976627;28;20030;-82
2023/01/16 08:20:12;;;;;;;1.17;1.00;;;;;;;;;;4978076;28;20033;-83
2023/01/16 08:22:45;;;;;;;2.83;1.20;;;;;;;;;;4986481;28;20117;-86
2023/01/16 08:25:11;;;;;;;1.02;0.90;;;;;;;;;;4979979;28;20489;-84
2023/01/16 08:27:55;;;;;;;1.05;0.95;;;;;;;;;;5001805;28;20065;-85
2023/01/16 08:30:20;;;;;;;4.53;1.42;;;;;;;;;;5001568;28;20464;-85
2023/01/16 08:32:46;;;;;;;2.30;1.13;;;;;;;;;;5005668;28;20041;-84
2023/01/16 08:35:11;;;;;;;3.30;1.25;;;;;;;;;;4996846;28;20064;-84
2023/01/16 08:37:37;;;;;;;1.85;1.00;;;;;;;;;;4995575;28;20032;-84
2023/01/16 08:40:04;;;;;;;1.60;1.45;;;;;;;;;;4997193;28;20532;-85
2023/01/16 08:53:32;;;;;;;3.00;0.73;;;;;;;;;;5000608;28;20048;-84
2023/01/16 08:55:57;;;;;;;0.93;0.90;;;;;;;;;;4999234;28;20030;-85
2023/01/16 08:58:23;;;;;;;0.75;0.75;;;;;;;;;;4999766;28;20030;-84
2023/01/16 09:00:50;;;;;;;0.82;0.80;;;;;;;;;;4993150;28;20026;-84
2023/01/16 09:03:18;;;;;;;0.80;0.80;;;;;;;;;;4993853;28;20330;-85
2023/01/16 09:05:44;;;;;;;1.48;0.57;;;;;;;;;;4993966;28;20116;-86
2023/01/16 09:08:10;;;;;;;0.65;0.60;;;;;;;;;;4997493;28;20023;-84
2023/01/16 09:10:35;;;;;;;0.90;0.90;;;;;;;;;;4995799;28;20108;-83
2023/01/16 09:15:45;;;;;;;2.17;0.95;;;;;;;;;;4998711;28;20060;-85
2023/01/16 09:18:10;;;;;;;1.00;1.00;;;;;;;;;;4989733;28;20065;-83
2023/01/16 09:20:36;;;;;;;1.73;0.98;;;;;;;;;;4996427;28;20129;-83
2023/01/16 09:23:03;;;;;;;1.05;0.95;;;;;;;;;;4989803;28;20026;-85
2023/01/16 09:25:29;;;;;;;0.90;0.90;;;;;;;;;;4999909;28;20519;-83
2023/01/16 09:27:55;;;;;;;3.30;1.05;;;;;;;;;;5001370;28;20049;-84
2023/01/16 09:30:21;;;;;;;1.02;0.77;;;;;;;;;;4997603;28;20030;-85
2023/01/16 09:32:46;;;;;;;1.02;0.45;;;;;;;;;;4999293;28;20080;-84
2023/01/16 09:35:13;;;;;;;2.05;0.90;;;;;;;;;;5001071;28;20023;-85
2023/01/16 09:37:40;;;;;;;3.28;1.02;;;;;;;;;;5001847;28;20511;-83
2023/01/16 09:40:11;;;;;;;0.65;0.65;;;;;;;;;;4999533;28;20031;-85
2023/01/16 09:45:42;;;;;;;0.70;0.65;;;;;;;;;;5002961;28;20038;-84
2023/01/16 09:48:17;;;;;;;1.63;0.88;;;;;;;;;;5003266;28;20157;-86
2023/01/16 09:50:49;;;;;;;0.80;0.75;;;;;;;;;;5003695;28;20026;-83
2023/01/16 09:59:36;;;;;;;1.08;0.68;;;;;;;;;;4977886;28;20061;-85
2023/01/16 10:02:15;;;;;;;0.63;0.60;;;;;;;;;;4996846;28;20031;-84
2023/01/16 10:04:42;;;;;;;3.83;0.65;;;;;;;;;;5009896;28;20121;-83
2023/01/16 10:07:19;;;;;;;0.90;0.80;;;;;;;;;;5002680;28;20026;-83
2023/01/16 10:09:47;;;;;;;1.17;0.88;;;;;;;;;;4998211;28;20055;-84
2023/01/16 10:12:14;;;;;;;1.20;0.60;;;;;;;;;;5006448;28;20021;-85
2023/01/16 10:15:04;;;;;;;1.58;0.57;;;;;;;;;;4995963;28;20365;-87
2023/01/16 10:17:53;;;;;;;4.03;0.95;;;;;;;;;;4997089;28;20048;-84
2023/01/16 10:20:44;;;;;;;1.50;0.80;;;;;;;;;;5011208;28;20030;-82
2023/01/16 10:23:18;;;;;;;1.13;0.85;;;;;;;;;;4993634;28;20555;-85
2023/01/16 10:25:50;;;;;;;4.45;1.10;;;;;;;;;;4990448;28;20113;-85
2023/01/16 10:28:36;;;;;;;;;;;;;;;;;;4992401;28;20026;-84
2023/01/16 10:31:16;;;;;;;0.60;0.60;;;;;;;;;;4987666;28;19952;-85
2023/01/16 10:33:56;;;;;;;0.50;0.40;;;;;;;;;;4996433;28;20042;-88
2023/01/16 10:36:29;;;;;;;0.80;0.45;;;;;;;;;;4996355;28;20116;-86
2023/01/16 10:38:56;;;;;;;0.98;0.68;;;;;;;;;;4992717;28;20046;-86
2023/01/16 10:50:10;;;;;;;0.50;0.50;;;;;;;;;;4977639;28;20138;-84
2023/01/16 10:52:36;;;;;;;1.48;0.50;;;;;;;;;;4970848;28;20145;-89
2023/01/16 10:55:03;;;;;;;1.00;0.60;;;;;;;;;;4966305;28;20511;-87
2023/01/16 10:57:28;;;;;;;0.88;0.73;;;;;;;;;;4987634;28;20038;-87
2023/01/16 11:00:05;;;;;;;0.32;0.32;;;;;;;;;;4985356;28;20032;-87
2023/01/16 11:02:34;;;;;;;0.73;0.73;;;;;;;;;;4971015;28;20382;-88
2023/01/16 11:05:01;;;;;;;0.40;0.40;;;;;;;;;;4975753;28;20588;-87
2023/01/16 11:07:29;;;;;;;0.55;0.50;;;;;;;;;;4969100;28;20093;-88
2023/01/16 11:09:54;;;;;;;0.60;0.60;;;;;;;;;;4968390;28;20034;-86
2023/01/16 11:18:28;;;;;;;0.50;0.50;;;;;;;;;;4978051;28;20036;-88
2023/01/16 11:20:54;;;;;;;0.47;0.47;;;;;;;;;;4976280;28;20026;-85
2023/01/16 11:23:26;;;;;;;3.08;0.73;;;;;;;;;;4975857;28;20947;-88
2023/01/16 11:25:56;;;;;;;0.75;0.57;;;;;;;;;;4976299;28;20116;-85
2023/01/16 11:28:27;;;;;;;1.38;0.70;;;;;;;;;;4976830;28;20027;-87
2023/01/16 11:30:56;;;;;;;0.90;0.57;;;;;;;;;;4975787;28;20014;-87
2023/01/16 11:33:27;;;;;;;0.40;0.40;;;;;;;;;;4983682;28;20069;-85
2023/01/16 11:35:58;;;;;;;1.80;0.80;;;;;;;;;;4994770;28;20042;-87
2023/01/16 11:38:25;;;;;;;0.55;0.55;;;;;;;;;;4978617;28;20055;-87
2023/01/16 11:40:55;;;;;;;0.40;0.40;;;;;;;;;;4977640;28;20620;-88
2023/01/16 11:46:31;;;;;;;0.82;0.55;;;;;;;;;;4986176;28;20130;-84
2023/01/16 11:49:05;;;;;;;0.95;0.68;;;;;;;;;;5005385;28;20054;-86
2023/01/16 11:51:36;;;;;;;0.65;0.60;;;;;;;;;;4995913;28;20034;-87
2023/01/16 11:54:03;;;;;;;1.25;0.70;;;;;;;;;;4990016;28;20512;-87
2023/01/16 11:57:00;;;;;;;0.43;0.43;;;;;;;;;;4988589;28;20475;-84
2023/01/16 12:02:55;;;;;;;1.10;0.60;;;;;;;;;;4962347;28;20066;-86
2023/01/16 12:05:54;;;;;;;0.70;0.70;;;;;;;;;;4995406;28;20130;-86
2023/01/16 12:08:29;;;;;;;0.88;0.65;;;;;;;;;;4983734;28;20034;-86
2023/01/16 12:11:10;;;;;;;0.57;0.55;;;;;;;;;;4989951;28;20026;-88
2023/01/16 12:16:59;;;;;;;0.50;0.50;;;;;;;;;;4993303;28;20033;-86
2023/01/16 12:20:08;;;;;;;0.60;0.50;;;;;;;;;;4998302;28;20026;-85
2023/01/16 12:23:04;;;;;;;0.73;0.50;;;;;;;;;;4994565;28;20046;-86
2023/01/16 12:26:03;;;;;;;0.60;0.60;;;;;;;;;;4999018;28;20038;-86
2023/01/16 12:29:09;;;;;;;0.45;0.45;;;;;;;;;;4996015;28;20065;-84
2023/01/16 12:31:35;;;;;;;0.60;0.60;;;;;;;;;;4986637;28;20398;-87
2023/01/16 12:34:32;;;;;;;0.80;0.50;;;;;;;;;;4995858;28;20080;-87
2023/01/16 12:37:20;;;;;;;0.57;0.40;;;;;;;;;;4992957;28;20030;-85
2023/01/16 12:40:21;;;;;;;0.43;0.43;;;;;;;;;;4997358;28;20027;-86
2023/01/16 12:43:19;;;;;;;1.33;0.47;;;;;;;;;;4983561;28;20066;-89
2023/01/16 12:46:06;;;;;;;1.98;0.73;;;;;;;;;;4997929;28;20062;-87
2023/01/16 12:48:52;;;;;;;0.57;0.45;;;;;;;;;;4997827;28;20026;-87
2023/01/16 12:51:51;;;;;;;0.45;0.45;;;;;;;;;;5001624;28;20499;-85
2023/01/16 12:54:22;;;;;;;1.40;1.30;;;;;;;;;;4991038;28;20396;-86
2023/01/16 12:57:12;;;;;;;0.70;0.70;;;;;;;;;;4994336;28;20031;-82
2023/01/16 12:59:58;;;;;;;0.45;0.45;;;;;;;;;;4997326;28;20022;-86
2023/01/16 13:02:34;;;;;;;0.40;0.40;;;;;;;;;;4987757;28;20030;-84
2023/01/16 13:05:03;;;;;;;0.60;0.52;;;;;;;;;;4998214;28;20041;-87
2023/01/16 13:07:35;;;;;;;0.30;0.30;;;;;;;;;;5008572;28;20022;-86
2023/01/16 13:26:35;;;;;;;0.50;0.28;;;;;;;;;;4942566;29;20078;-84
2023/01/16 13:29:25;;;;;;;0.30;0.30;;;;;;;;;;4920896;29;20032;-85
2023/01/16 13:31:57;;;;;;;0.35;0.35;;;;;;;;;;4991613;28;20022;-86
2023/01/16 13:34:46;;;;;;;0.63;0.40;;;;;;;;;;4994920;28;20018;-87
2023/01/16 13:37:57;;;;;;;0.63;0.60;;;;;;;;;;4990539;28;20043;-87
2023/01/16 13:40:41;;;;;;;0.30;0.30;;;;;;;;;;4999787;28;20149;-85
2023/01/16 13:47:10;;;;;;;0.60;0.60;;;;;;;;;;4994312;28;20037;-86
2023/01/16 13:49:35;;;;;;;0.30;0.30;;;;;;;;;;5008427;28;20046;-84
2023/01/16 13:52:03;;;;;;;1.42;0.52;;;;;;;;;;4997944;28;20022;-84
2023/01/16 13:54:42;;;;;;;0.45;0.30;;;;;;;;;;4994552;28;20125;-85
2023/01/16 13:57:15;;;;;;;1.08;0.60;;;;;;;;;;4993006;28;20048;-86
2023/01/16 14:00:02;;;;;;;0.40;0.40;;;;;;;;;;4992740;28;20505;-84
2023/01/16 14:02:38;;;;;;;0.30;0.30;;;;;;;;;;4998170;28;20038;-85
2023/01/16 14:05:24;;;;;;;0.60;0.60;;;;;;;;;;4993726;28;20022;-84
2023/01/16 14:10:58;;;;;;;0.20;0.20;;;;;;;;;;4991090;28;20057;-85
2023/01/16 14:13:24;;;;;;;0.40;0.40;;;;;;;;;;4996746;28;20564;-86
2023/01/16 14:19:00;;;;;;;0.40;0.40;;;;;;;;;;5000790;28;20036;-85
2023/01/16 14:21:28;;;;;;;0.35;0.30;;;;;;;;;;5003217;28;20018;-86
2023/01/16 14:24:00;;;;;;;0.30;0.30;;;;;;;;;;5000828;28;20469;-84
2023/01/16 14:26:33;;;;;;;1.00;0.60;;;;;;;;;;4992504;28;20031;-85
2023/01/16 14:29:01;;;;;;;0.38;0.38;;;;;;;;;;5002477;28;20023;-86
2023/01/16 14:31:49;;;;;;;0.28;0.28;;;;;;;;;;4985455;28;20046;-86
2023/01/16 14:34:22;;;;;;;0.50;0.40;;;;;;;;;;4989303;28;20165;-86
2023/01/16 14:36:51;;;;;;;0.50;0.50;;;;;;;;;;4988661;28;20437;-86
2023/01/16 14:39:34;;;;;;;0.30;0.30;;;;;;;;;;5002432;28;20430;-87
2023/01/16 14:57:08;;;;;;;;;;;;;;;;;;4942367;28;20039;-87
2023/01/16 14:59:36;;;;;;;0.30;0.30;;;;;;;;;;4978640;28;19914;-85
2023/01/16 15:02:19;;;;;;;0.40;0.40;;;;;;;;;;4981144;28;20034;-86
2023/01/16 15:04:55;;;;;;;4.43;0.47;;;;;;;;;;4998370;28;20536;-85
2023/01/16 15:07:30;;;;;;;0.40;0.40;;;;;;;;;;5003738;28;20029;-85
2023/01/16 15:10:01;;;;;;;0.68;0.68;;;;;;;;;;4991766;28;20045;-85
2023/01/16 15:12:37;;;;;;;1.08;0.95;;;;;;;;;;4991645;28;20026;-85
2023/01/16 15:15:03;;;;;;;2.83;1.48;;;;;;;;;;4986598;28;20031;-85
2023/01/16 15:23:22;;;;;;;0.40;0.40;;;;;;;;;;4985122;28;20037;-84
2023/01/16 15:26:03;;;;;;;0.50;0.50;;;;;;;;;;4988801;28;20037;-86
2023/01/16 15:28:45;;;;;;;0.77;0.43;;;;;;;;;;5000710;28;20031;-85
2023/01/16 15:32:08;;;;;;;0.50;0.45;;;;;;;;;;4992909;28;20026;-86
2023/01/16 15:34:34;;;;;;;0.57;0.57;;;;;;;;;;4980743;28;20044;-89
2023/01/16 15:37:05;;;;;;;2.33;1.52;;;;;;;;;;4981997;28;20620;-88
2023/01/16 15:39:36;;;;;;;0.57;0.57;;;;;;;;;;4988665;28;20076;-87
2023/01/16 15:48:11;;;;;;;1.25;0.68;;;;;;;;;;4982710;28;21892;-86
2023/01/16 15:50:56;;;;;;;0.30;0.30;;;;;;;;;;4988552;28;20086;-87
2023/01/16 15:53:32;;;;;;;0.30;0.30;;;;;;;;;;4978455;28;20684;-85
2023/01/16 15:56:04;;;;;;;0.68;0.60;;;;;;;;;;4979879;28;20384;-87
2023/01/16 15:58:30;;;;;;;0.50;0.50;;;;;;;;;;4990295;28;20045;-87
2023/01/16 16:01:00;;;;;;;0.50;0.40;;;;;;;;;;4978455;28;20031;-88
2023/01/16 16:03:30;;;;;;;0.52;0.40;;;;;;;;;;4985907;28;20026;-88
2023/01/16 16:06:02;;;;;;;0.50;0.50;;;;;;;;;;4993954;28;20057;-86
2023/01/16 16:08:30;;;;;;;0.80;0.40;;;;;;;;;;4983688;28;20026;-89
2023/01/16 16:13:43;;;;;;;0.85;0.70;;;;;;;;;;4983013;28;20053;-85
2023/01/16 16:19:06;;;;;;;0.98;0.68;;;;;;;;;;4982880;28;20045;-85
2023/01/16 16:22:47;;;;;;;1.17;0.52;;;;;;;;;;4977609;28;20825;-87
2023/01/16 16:24:35;;;;;;;0.57;0.57;;;;;;;;;;4982376;28;20034;-89
2023/01/16 16:27:07;;;;;;;0.50;0.50;;;;;;;;;;4993042;28;20045;-84
2023/01/16 16:29:34;;;;;;;0.55;0.55;;;;;;;;;;4976163;28;20674;-87
2023/01/16 16:32:02;;;;;;;2.00;1.80;;;;;;;;;;4987880;28;20026;-83
2023/01/16 16:34:29;;;;;;;0.65;0.60;;;;;;;;;;4974208;28;20034;-85
2023/01/16 16:37:00;;;;;;;0.65;0.65;;;;;;;;;;4972890;28;20019;-87
2023/01/16 16:39:36;;;;;;;2.90;0.65;;;;;;;;;;4985835;28;20034;-82
2023/01/16 16:42:37;;;;;;;0.60;0.60;;;;;;;;;;4983547;28;22324;-87
2023/01/16 16:45:06;;;;;;;1.65;0.60;;;;;;;;;;4968444;28;20045;-85
2023/01/16 16:47:34;;;;;;;0.40;0.40;;;;;;;;;;4983151;28;20022;-84
2023/01/16 16:50:00;;;;;;;0.50;0.50;;;;;;;;;;4982091;28;20130;-85
2023/01/16 16:52:43;;;;;;;0.75;0.75;;;;;;;;;;4982809;28;20049;-85
2023/01/16 16:55:32;;;;;;;0.73;0.73;;;;;;;;;;4980393;28;20037;-88
2023/01/16 16:58:00;;;;;;;0.50;0.50;;;;;;;;;;4987729;28;20090;-84
2023/01/16 17:00:27;;;;;;;0.50;0.50;;;;;;;;;;4989189;28;20038;-84
2023/01/16 17:03:16;;;;;;;0.60;0.60;;;;;;;;;;4989308;28;20050;-86
2023/01/16 17:05:42;;;;;;;0.63;0.60;;;;;;;;;;4979615;28;20939;-87
2023/01/16 17:08:16;;;;;;;1.40;0.60;;;;;;;;;;4983440;28;20742;-86
2023/01/16 17:10:42;;;;;;;0.60;0.60;;;;;;;;;;4979105;28;21569;-85
2023/01/16 17:13:10;;;;;;;0.47;0.43;;;;;;;;;;4986569;28;20033;-89
2023/01/16 17:15:36;;;;;;;1.05;1.05;;;;;;;;;;4981715;28;20032;-88